Echo Bay, Nevada
Current Conditions -  °F | °C
As of 9:58 AM on Friday 21 Nov 2014 (Local Time) from KLSV Reporting Station
Clear Clear  
Wind Chill: 14°   Ceiling: Unl
Heat Index: 14°   Visibility: 10mi
Dew Point: -7°   Wind: 0mph
Humidity: 23%   Direction: NA
Pressure: 30"   Gusts: NA
Location:  36.5809°N, 114.605°W
Report Text: KLSV 211758Z AUTO 00000KT 10SM CLR 14/M07 A3000 RMK AO2 SLP152 T01441069 10144 20078 51014
Loading
Personal Weather Stations






























Interactive Weather Map New forecast layout! Learn more

10-Day Weather Forecast

Advertisements
Track Severe Weather on mobile